Time;durP1;ratioP1;P1;durP2;ratioP2;P2;SDS_P1;SDS_P2;PMS_P1;PMS_P2;Temp;Humidity;BMP_temperature;BMP_pressure;BME280_temperature;BME280_humidity;BME280_pressure;Samples;Min_cycle;Max_cycle;Signal;HPM_P1;HPM_P2
2021/07/09 00:00:34;;;;;;;34.90;21.63;;;16.80;99.90;;;;;;5061375;28;20227;-68
2021/07/09 00:03:03;;;;;;;37.10;20.83;;;16.70;99.90;;;;;;5066238;28;20283;-67
2021/07/09 00:05:33;;;;;;;35.07;20.80;;;16.70;99.90;;;;;;5069058;28;20219;-67
2021/07/09 00:08:01;;;;;;;36.23;21.10;;;16.70;99.90;;;;;;5068930;28;20219;-67
2021/07/09 00:10:30;;;;;;;29.10;20.43;;;16.70;99.90;;;;;;5068969;28;20193;-67
2021/07/09 00:12:58;;;;;;;34.33;20.40;;;16.60;99.90;;;;;;5066784;28;20227;-68
2021/07/09 00:15:26;;;;;;;39.90;25.27;;;16.60;99.90;;;;;;5069978;28;20278;-68
2021/07/09 00:17:55;;;;;;;35.70;23.03;;;16.60;99.90;;;;;;5068434;28;20216;-67
2021/07/09 00:20:23;;;;;;;41.33;25.33;;;16.60;99.90;;;;;;5069488;28;20606;-68
2021/07/09 00:22:53;;;;;;;40.77;24.50;;;16.60;99.90;;;;;;5067792;28;20686;-67
2021/07/09 00:25:22;;;;;;;42.20;24.43;;;16.60;99.90;;;;;;5068742;28;20224;-67
2021/07/09 00:27:51;;;;;;;40.47;23.83;;;16.70;99.90;;;;;;5062349;28;20195;-67
2021/07/09 00:30:19;;;;;;;43.23;25.50;;;16.60;99.90;;;;;;5067411;28;20184;-67
2021/07/09 00:32:48;;;;;;;47.20;27.23;;;16.70;99.90;;;;;;5064925;28;20670;-67
2021/07/09 00:35:16;;;;;;;37.10;24.17;;;16.70;99.90;;;;;;5067272;28;20283;-67
2021/07/09 00:37:44;;;;;;;42.93;24.60;;;16.70;99.90;;;;;;5064829;28;20304;-67
2021/07/09 00:40:15;;;;;;;34.30;22.77;;;16.60;99.90;;;;;;5068375;28;20369;-67
2021/07/09 00:42:43;;;;;;;35.00;22.23;;;16.50;99.90;;;;;;5066549;28;20208;-67
2021/07/09 00:45:13;;;;;;;36.13;21.90;;;16.50;99.90;;;;;;5068521;28;20239;-67
2021/07/09 00:47:45;;;;;;;39.87;25.17;;;16.40;99.90;;;;;;5067254;28;20196;-67
2021/07/09 00:50:18;;;;;;;47.90;29.30;;;16.30;99.90;;;;;;5067962;28;20193;-67
2021/07/09 00:52:47;;;;;;;53.80;29.13;;;16.30;99.90;;;;;;5066760;28;20534;-67
2021/07/09 00:55:18;;;;;;;51.57;27.47;;;16.20;99.90;;;;;;5066829;28;20282;-68
2021/07/09 00:57:49;;;;;;;47.37;26.87;;;16.10;99.90;;;;;;5067795;28;20235;-67
2021/07/09 01:00:20;;;;;;;47.10;27.20;;;16.00;99.90;;;;;;5068226;28;20736;-67
2021/07/09 01:02:49;;;;;;;57.20;28.70;;;16.00;99.90;;;;;;5063308;28;20612;-67
2021/07/09 01:05:18;;;;;;;62.87;29.23;;;16.00;99.90;;;;;;5061774;28;20284;-67
2021/07/09 01:07:47;;;;;;;54.47;30.73;;;16.00;99.90;;;;;;5048739;28;20239;-67
2021/07/09 01:10:19;;;;;;;50.53;28.83;;;16.00;99.90;;;;;;5068552;28;20231;-67
2021/07/09 01:12:48;;;;;;;45.53;26.27;;;16.00;99.90;;;;;;5061997;28;20202;-67
2021/07/09 01:15:18;;;;;;;41.70;25.03;;;16.00;99.90;;;;;;5064442;28;20288;-68
2021/07/09 01:17:47;;;;;;;38.97;23.57;;;15.90;99.90;;;;;;5066588;28;20759;-67
2021/07/09 01:20:17;;;;;;;42.00;24.00;;;15.90;99.90;;;;;;5071289;28;21390;-68
2021/07/09 01:22:47;;;;;;;32.27;20.57;;;15.90;99.90;;;;;;5063067;28;20224;-67
2021/07/09 01:25:19;;;;;;;28.90;18.67;;;15.90;99.90;;;;;;5065747;28;20229;-67
2021/07/09 01:27:49;;;;;;;28.50;19.00;;;15.90;99.90;;;;;;5068970;28;20192;-67
2021/07/09 01:30:21;;;;;;;29.13;18.43;;;15.90;99.90;;;;;;5063491;28;20198;-67
2021/07/09 01:32:50;;;;;;;22.93;15.73;;;15.90;99.90;;;;;;5062697;28;20302;-67
2021/07/09 01:35:19;;;;;;;21.07;15.90;;;15.90;99.90;;;;;;5068096;28;20235;-68
2021/07/09 01:37:55;;;;;;;17.90;14.40;;;15.90;99.90;;;;;;5067698;28;20662;-67
2021/07/09 01:40:26;;;;;;;20.33;14.77;;;15.90;99.90;;;;;;5064463;28;20273;-67
2021/07/09 01:42:54;;;;;;;27.43;14.43;;;15.90;99.90;;;;;;5065778;28;20301;-68
2021/07/09 01:45:24;;;;;;;19.47;14.47;;;15.90;99.90;;;;;;5066269;28;20559;-67
2021/07/09 01:47:53;;;;;;;19.03;13.13;;;15.90;99.90;;;;;;5067730;28;20196;-67
2021/07/09 01:50:22;;;;;;;20.13;14.27;;;15.90;99.90;;;;;;5066572;28;20231;-67
2021/07/09 01:52:51;;;;;;;19.40;13.90;;;15.90;99.90;;;;;;5060066;28;20659;-67
2021/07/09 01:55:20;;;;;;;18.33;13.03;;;15.90;99.90;;;;;;5066043;28;20184;-68
2021/07/09 01:57:50;;;;;;;22.43;13.77;;;15.90;99.90;;;;;;5067363;28;20572;-67
2021/07/09 02:00:21;;;;;;;24.97;13.73;;;15.80;99.90;;;;;;5067060;28;20242;-67
2021/07/09 02:02:50;;;;;;;20.83;13.30;;;15.80;99.90;;;;;;5064581;28;20246;-68
2021/07/09 02:05:20;;;;;;;20.17;14.17;;;15.80;99.90;;;;;;5061739;28;20224;-67
2021/07/09 02:07:51;;;;;;;22.23;15.97;;;15.70;99.90;;;;;;5059065;28;20514;-67
2021/07/09 02:10:22;;;;;;;23.47;15.33;;;15.70;99.90;;;;;;5065913;28;20219;-67
2021/07/09 02:12:54;;;;;;;22.17;15.20;;;15.70;99.90;;;;;;5064279;28;20250;-68
2021/07/09 02:15:30;;;;;;;22.67;14.23;;;15.70;99.90;;;;;;5067433;28;20210;-67
2021/07/09 02:17:59;;;;;;;18.53;13.80;;;15.70;99.90;;;;;;5068294;28;20280;-67
2021/07/09 02:20:28;;;;;;;20.27;14.47;;;15.70;99.90;;;;;;5064250;28;20198;-67
2021/07/09 02:22:57;;;;;;;19.13;13.33;;;15.70;99.90;;;;;;5064706;28;20221;-67
2021/07/09 02:25:26;;;;;;;20.50;13.00;;;15.60;99.90;;;;;;5064599;28;20295;-67
2021/07/09 02:27:57;;;;;;;21.60;12.40;;;15.60;99.90;;;;;;5068003;28;20698;-67
2021/07/09 02:30:28;;;;;;;23.63;12.43;;;15.60;99.90;;;;;;5064616;28;20284;-67
2021/07/09 02:32:56;;;;;;;17.83;11.80;;;15.50;99.90;;;;;;5065538;28;20778;-67
2021/07/09 02:35:27;;;;;;;20.40;12.07;;;15.50;99.90;;;;;;5065553;28;20192;-67
2021/07/09 02:37:55;;;;;;;18.80;12.47;;;15.50;99.90;;;;;;5063487;28;20227;-67
2021/07/09 02:40:26;;;;;;;20.23;12.07;;;15.40;99.90;;;;;;5065097;28;20223;-67
2021/07/09 02:42:58;;;;;;;18.17;11.97;;;15.40;99.90;;;;;;5069650;28;20666;-67
2021/07/09 02:45:28;;;;;;;17.70;11.43;;;15.40;99.90;;;;;;5068236;28;20196;-67
2021/07/09 02:48:13;;;;;;;18.30;11.40;;;15.40;99.90;;;;;;5070228;28;20219;-67
2021/07/09 02:50:42;;;;;;;15.77;11.83;;;15.40;99.90;;;;;;5070479;28;20237;-67
2021/07/09 02:53:11;;;;;;;20.33;13.23;;;15.40;99.90;;;;;;5070082;28;20257;-67
2021/07/09 02:55:40;;;;;;;23.80;13.97;;;15.30;99.90;;;;;;5069714;28;20200;-68
2021/07/09 02:58:11;;;;;;;21.60;13.10;;;15.30;99.90;;;;;;5071092;28;20212;-67
2021/07/09 03:00:39;;;;;;;20.97;13.17;;;15.30;99.90;;;;;;5067959;28;20578;-67
2021/07/09 03:03:10;;;;;;;19.07;12.40;;;15.30;99.90;;;;;;5068477;28;20200;-67
2021/07/09 03:05:39;;;;;;;17.83;11.90;;;15.30;99.90;;;;;;5064100;28;20224;-67
2021/07/09 03:08:07;;;;;;;17.80;12.37;;;15.30;99.90;;;;;;5066241;28;20282;-67
2021/07/09 03:10:36;;;;;;;16.40;11.43;;;15.30;99.90;;;;;;5068364;28;20192;-67
2021/07/09 03:13:05;;;;;;;18.83;12.63;;;15.30;99.90;;;;;;5070476;28;20204;-67
2021/07/09 03:15:37;;;;;;;19.83;12.37;;;15.30;99.90;;;;;;5067751;28;20222;-69
2021/07/09 03:18:05;;;;;;;22.20;11.70;;;15.30;99.90;;;;;;5071790;28;20313;-70
2021/07/09 03:20:36;;;;;;;17.30;10.60;;;15.30;99.90;;;;;;5067897;28;20299;-69
2021/07/09 03:23:04;;;;;;;18.00;10.60;;;15.20;99.90;;;;;;5068928;28;20188;-70
2021/07/09 03:25:33;;;;;;;15.40;10.73;;;15.10;99.90;;;;;;5068512;28;20192;-69
2021/07/09 03:28:01;;;;;;;25.00;11.33;;;15.10;99.90;;;;;;5068352;28;20216;-69
2021/07/09 03:30:30;;;;;;;16.90;10.43;;;15.00;99.90;;;;;;5068270;28;20223;-70
2021/07/09 03:33:00;;;;;;;18.70;11.07;;;14.90;99.90;;;;;;5065542;28;20228;-69
2021/07/09 03:35:29;;;;;;;13.67;10.67;;;14.80;99.90;;;;;;5068842;28;20204;-69
2021/07/09 03:37:58;;;;;;;17.90;10.20;;;14.80;99.90;;;;;;5062907;28;20231;-69
2021/07/09 03:40:27;;;;;;;15.50;10.67;;;14.80;99.90;;;;;;5068674;28;20865;-69
2021/07/09 03:42:55;;;;;;;17.20;10.57;;;14.70;99.90;;;;;;5070005;28;20482;-69
2021/07/09 03:45:23;;;;;;;18.40;11.07;;;14.70;99.90;;;;;;5068869;28;20232;-70
2021/07/09 03:47:52;;;;;;;18.10;11.30;;;14.70;99.90;;;;;;5069168;28;20273;-70
2021/07/09 03:50:32;;;;;;;18.77;11.07;;;14.60;99.90;;;;;;5067611;28;20605;-70
2021/07/09 03:53:02;;;;;;;17.47;11.33;;;14.60;99.90;;;;;;5050002;28;20203;-69
2021/07/09 03:56:18;;;;;;;18.13;10.07;;;14.60;99.90;;;;;;5066501;28;20207;-70
2021/07/09 03:58:46;;;;;;;19.70;10.90;;;14.60;99.90;;;;;;5065459;28;20184;-69
2021/07/09 04:01:15;;;;;;;21.57;10.27;;;14.60;99.90;;;;;;5065800;28;20755;-69
2021/07/09 04:03:44;;;;;;;19.43;10.97;;;14.60;99.90;;;;;;5063265;28;20199;-70
2021/07/09 04:06:13;;;;;;;17.60;11.57;;;14.60;99.90;;;;;;5059385;28;20350;-69
2021/07/09 04:08:42;;;;;;;22.83;12.00;;;14.60;99.90;;;;;;5068678;28;20655;-69
2021/07/09 04:11:10;;;;;;;20.10;11.37;;;14.50;99.90;;;;;;5068825;28;20282;-68
2021/07/09 04:13:39;;;;;;;19.93;11.80;;;14.50;99.90;;;;;;5067040;28;20536;-70
2021/07/09 04:16:41;;;;;;;20.07;12.13;;;14.50;99.90;;;;;;5067013;28;20237;-69
2021/07/09 04:19:10;;;;;;;22.33;11.37;;;14.50;99.90;;;;;;5064196;28;20199;-68
2021/07/09 04:21:40;;;;;;;19.73;11.43;;;14.50;99.90;;;;;;5068998;28;20739;-69
2021/07/09 04:24:09;;;;;;;19.03;12.17;;;14.50;99.90;;;;;;5048419;28;20283;-69
2021/07/09 04:26:37;;;;;;;22.07;11.57;;;14.50;99.90;;;;;;5065499;28;20192;-70
2021/07/09 04:29:06;;;;;;;21.77;11.93;;;14.50;99.90;;;;;;5068392;28;20246;-69
2021/07/09 04:31:34;;;;;;;18.20;11.00;;;14.50;99.90;;;;;;5068868;28;20289;-70
2021/07/09 04:34:03;;;;;;;21.80;12.97;;;14.60;99.90;;;;;;5065682;28;20219;-70
2021/07/09 04:36:31;;;;;;;19.67;11.43;;;14.60;99.90;;;;;;5067200;28;20196;-68
2021/07/09 04:39:01;;;;;;;18.80;11.80;;;14.70;99.90;;;;;;5065738;28;20287;-69
2021/07/09 04:41:30;;;;;;;24.37;12.10;;;14.80;99.90;;;;;;5064745;28;20218;-69
2021/07/09 04:43:58;;;;;;;16.83;10.97;;;14.80;99.90;;;;;;5068802;28;20654;-69
2021/07/09 04:46:27;;;;;;;19.27;12.03;;;14.80;99.90;;;;;;5065488;28;20243;-69
2021/07/09 04:48:55;;;;;;;21.60;11.77;;;14.90;99.90;;;;;;5066732;28;20224;-70
2021/07/09 04:51:23;;;;;;;17.47;11.63;;;14.90;99.90;;;;;;5066928;28;20192;-70
2021/07/09 04:53:52;;;;;;;18.67;10.97;;;15.00;99.90;;;;;;5067535;28;20663;-69
2021/07/09 04:56:22;;;;;;;19.90;11.83;;;15.00;99.90;;;;;;5069108;28;20241;-70
2021/07/09 04:58:50;;;;;;;16.53;11.43;;;15.10;99.90;;;;;;5066849;28;20240;-70
2021/07/09 05:01:19;;;;;;;16.97;11.03;;;15.20;99.90;;;;;;5066238;28;20209;-69
2021/07/09 05:03:47;;;;;;;26.97;12.23;;;15.20;99.90;;;;;;5066665;28;20659;-69
2021/07/09 05:06:16;;;;;;;21.37;11.53;;;15.20;99.90;;;;;;5058686;28;20236;-69
2021/07/09 05:08:44;;;;;;;20.20;11.00;;;15.20;99.90;;;;;;5059760;28;20221;-69
2021/07/09 05:11:12;;;;;;;23.83;12.20;;;15.20;99.90;;;;;;5066919;28;20184;-70
2021/07/09 05:13:42;;;;;;;22.33;11.57;;;15.30;99.90;;;;;;5068959;28;20311;-70
2021/07/09 05:16:11;;;;;;;17.50;10.27;;;15.30;99.90;;;;;;5065371;28;20200;-70
2021/07/09 05:18:40;;;;;;;25.60;12.13;;;15.30;99.90;;;;;;5065446;28;20287;-70
2021/07/09 05:21:08;;;;;;;17.13;11.20;;;15.40;99.90;;;;;;5065585;28;20212;-70
2021/07/09 05:23:36;;;;;;;25.20;12.37;;;15.30;99.90;;;;;;5062193;28;20240;-70
2021/07/09 05:26:05;;;;;;;22.93;11.83;;;15.40;99.90;;;;;;5057507;28;21794;-69
2021/07/09 05:28:33;;;;;;;18.57;11.43;;;15.50;99.90;;;;;;5066706;28;20195;-70
2021/07/09 05:31:03;;;;;;;19.07;11.50;;;15.50;99.90;;;;;;5066713;28;20302;-69
2021/07/09 05:33:31;;;;;;;22.47;12.40;;;15.60;99.90;;;;;;5066518;28;20231;-69
2021/07/09 05:36:00;;;;;;;20.73;11.63;;;15.60;99.90;;;;;;5061279;28;20685;-69
2021/07/09 05:38:28;;;;;;;19.53;11.77;;;15.70;99.90;;;;;;5062205;28;20702;-69
2021/07/09 05:40:57;;;;;;;18.17;11.03;;;15.80;99.90;;;;;;5060560;28;20232;-70
2021/07/09 05:43:25;;;;;;;20.47;11.63;;;15.70;99.90;;;;;;5065273;28;20192;-69
2021/07/09 05:45:54;;;;;;;18.10;11.43;;;15.80;99.90;;;;;;5057958;28;20225;-70
2021/07/09 05:48:24;;;;;;;17.77;10.90;;;15.90;99.90;;;;;;5056115;28;20635;-69
2021/07/09 05:50:52;;;;;;;17.60;11.27;;;15.80;99.90;;;;;;5063176;28;20195;-69
2021/07/09 05:53:22;;;;;;;19.73;10.90;;;15.90;99.90;;;;;;5057545;28;20255;-69
2021/07/09 05:55:50;;;;;;;17.97;10.47;;;15.90;99.90;;;;;;5060094;28;20481;-68
2021/07/09 05:58:19;;;;;;;16.07;10.57;;;16.00;99.90;;;;;;5065240;28;20198;-69
2021/07/09 06:00:47;;;;;;;21.57;11.27;;;16.10;99.90;;;;;;5066003;28;20297;-70
2021/07/09 06:03:16;;;;;;;15.80;10.07;;;16.30;99.90;;;;;;5063966;28;20194;-69
2021/07/09 06:05:46;;;;;;;12.70;9.27;;;16.60;99.90;;;;;;5060208;28;20452;-70
2021/07/09 06:08:14;;;;;;;16.00;10.93;;;17.00;99.90;;;;;;5058383;28;20292;-68
2021/07/09 06:10:43;;;;;;;15.67;10.10;;;17.30;99.90;;;;;;5053126;28;20320;-70
2021/07/09 06:13:11;;;;;;;14.77;10.13;;;17.50;99.90;;;;;;5063956;28;20188;-70
2021/07/09 06:15:40;;;;;;;14.37;9.80;;;17.70;99.90;;;;;;5067098;28;20220;-70
2021/07/09 06:18:19;;;;;;;13.23;9.53;;;17.80;99.90;;;;;;5060810;28;20662;-70
2021/07/09 06:20:49;;;;;;;15.03;9.40;;;18.10;99.90;;;;;;5055832;28;20332;-70
2021/07/09 06:23:17;;;;;;;12.63;9.13;;;18.30;99.90;;;;;;5059947;28;20228;-70
2021/07/09 06:25:46;;;;;;;13.57;9.97;;;18.50;99.90;;;;;;5060665;28;20220;-70
2021/07/09 06:28:14;;;;;;;15.47;10.33;;;18.40;99.90;;;;;;5064290;28;20289;-68
2021/07/09 06:30:43;;;;;;;14.57;9.77;;;18.20;99.90;;;;;;5064880;28;20211;-71
2021/07/09 06:33:12;;;;;;;15.70;10.37;;;18.10;99.90;;;;;;5067465;28;20228;-70
2021/07/09 06:35:41;;;;;;;18.17;10.33;;;18.00;99.90;;;;;;5063955;28;20224;-69
2021/07/09 06:38:10;;;;;;;17.13;11.17;;;18.00;99.90;;;;;;5067284;28;20273;-69
2021/07/09 06:40:43;;;;;;;19.73;11.13;;;17.90;99.90;;;;;;5064474;28;20275;-69
2021/07/09 06:43:12;;;;;;;16.53;10.83;;;17.80;99.90;;;;;;5063462;28;20275;-70
2021/07/09 06:45:41;;;;;;;18.33;11.13;;;17.70;99.90;;;;;;5069735;28;20234;-70
2021/07/09 06:48:09;;;;;;;16.37;10.70;;;17.60;99.90;;;;;;5063746;28;20228;-69
2021/07/09 06:50:38;;;;;;;15.77;10.00;;;17.50;99.90;;;;;;5065162;28;20223;-70
2021/07/09 06:53:07;;;;;;;13.93;9.80;;;17.50;99.90;;;;;;5064691;28;20280;-70
2021/07/09 06:55:37;;;;;;;14.93;9.23;;;17.30;99.90;;;;;;5063464;28;20283;-70
2021/07/09 06:58:06;;;;;;;14.53;9.07;;;17.50;99.90;;;;;;5063908;28;20231;-70
2021/07/09 07:00:35;;;;;;;12.03;8.87;;;17.80;99.90;;;;;;5064124;28;20374;-69
2021/07/09 07:03:03;;;;;;;10.13;8.40;;;17.90;99.90;;;;;;5058878;28;20196;-68
2021/07/09 07:05:32;;;;;;;11.67;8.50;;;18.10;99.90;;;;;;5056219;28;20197;-70
2021/07/09 07:08:13;;;;;;;11.00;7.70;;;18.20;99.90;;;;;;5064025;28;20211;-70
2021/07/09 07:10:44;;;;;;;10.30;7.10;;;18.10;99.90;;;;;;5063388;28;20258;-70
2021/07/09 07:13:13;;;;;;;14.10;8.30;;;18.20;99.90;;;;;;5062867;28;20667;-69
2021/07/09 07:15:41;;;;;;;10.80;7.70;;;18.20;99.90;;;;;;5065264;28;20188;-69
2021/07/09 07:18:12;;;;;;;12.67;7.93;;;18.20;99.90;;;;;;5064051;28;20282;-70
2021/07/09 07:20:43;;;;;;;13.27;8.57;;;18.20;99.90;;;;;;5069045;28;20188;-70
2021/07/09 07:23:12;;;;;;;7.63;6.83;;;18.50;99.90;;;;;;5070815;28;20270;-70
2021/07/09 07:25:41;;;;;;;8.87;7.07;;;18.90;99.90;;;;;;5068462;28;20223;-70
2021/07/09 07:28:10;;;;;;;9.90;7.07;;;19.10;99.90;;;;;;5067555;28;20227;-70
2021/07/09 07:30:48;;;;;;;9.80;7.20;;;19.10;99.90;;;;;;5068172;28;20580;-69
2021/07/09 07:33:16;;;;;;;7.53;6.73;;;18.90;99.90;;;;;;5069174;28;20654;-70
2021/07/09 07:35:45;;;;;;;10.43;7.17;;;18.50;99.90;;;;;;5068439;28;20239;-70
2021/07/09 07:38:13;;;;;;;7.80;6.40;;;18.70;99.90;;;;;;5066706;28;20223;-70
2021/07/09 07:40:41;;;;;;;6.47;5.80;;;19.30;99.90;;;;;;5070379;28;20188;-71
2021/07/09 07:43:14;;;;;;;7.70;5.90;;;20.50;99.90;;;;;;5068789;28;20211;-71
2021/07/09 07:45:42;;;;;;;7.63;5.70;;;21.90;99.90;;;;;;5068275;28;20520;-71
2021/07/09 07:48:11;;;;;;;5.93;5.37;;;22.20;99.90;;;;;;5059244;28;20624;-70
2021/07/09 07:50:40;;;;;;;8.23;5.30;;;22.60;99.90;;;;;;5069113;28;20202;-71
2021/07/09 07:53:08;;;;;;;6.33;5.73;;;22.90;99.90;;;;;;5068952;28;20225;-70
2021/07/09 07:55:38;;;;;;;6.97;5.53;;;22.90;99.90;;;;;;5066844;28;20285;-70
2021/07/09 07:58:07;;;;;;;6.77;5.67;;;22.30;99.90;;;;;;5065323;28;20825;-70
2021/07/09 08:00:37;;;;;;;7.47;6.10;;;21.70;99.90;;;;;;5071026;28;20251;-70
2021/07/09 08:03:05;;;;;;;11.63;6.07;;;21.30;99.90;;;;;;5069048;28;20690;-69
2021/07/09 08:05:34;;;;;;;8.33;5.97;;;21.00;99.90;;;;;;5069026;28;20776;-70
2021/07/09 08:08:02;;;;;;;7.43;5.87;;;20.90;99.90;;;;;;5066935;28;20641;-69
2021/07/09 08:10:30;;;;;;;6.67;5.63;;;20.80;99.90;;;;;;5067044;28;20220;-70
2021/07/09 08:12:58;;;;;;;6.93;6.10;;;21.10;99.90;;;;;;5068523;28;20233;-69
2021/07/09 08:15:27;;;;;;;9.50;5.90;;;20.70;99.90;;;;;;5068193;28;20547;-69
2021/07/09 08:17:57;;;;;;;9.80;6.13;;;20.30;99.90;;;;;;5066100;28;20659;-69
2021/07/09 08:20:25;;;;;;;7.87;6.83;;;20.20;99.90;;;;;;5070321;28;20220;-69
2021/07/09 08:22:53;;;;;;;7.83;6.10;;;19.90;99.90;;;;;;5064645;28;20315;-70
2021/07/09 08:25:25;;;;;;;8.13;6.27;;;19.80;99.90;;;;;;5054018;28;20215;-69
2021/07/09 08:27:53;;;;;;;7.73;6.40;;;19.60;99.90;;;;;;5067653;28;20223;-69
2021/07/09 08:30:21;;;;;;;10.07;6.83;;;19.50;99.90;;;;;;5069760;28;20188;-69
2021/07/09 08:32:50;;;;;;;8.77;6.73;;;19.40;99.90;;;;;;5066413;28;20247;-69
2021/07/09 08:35:20;;;;;;;8.43;7.13;;;19.20;99.90;;;;;;5064723;28;20596;-68
2021/07/09 08:37:52;;;;;;;7.93;7.10;;;19.10;99.90;;;;;;5059470;28;20207;-70
2021/07/09 08:40:22;;;;;;;10.33;7.43;;;19.10;99.90;;;;;;5065591;28;20196;-69
2021/07/09 08:42:50;;;;;;;7.63;6.93;;;19.20;99.90;;;;;;5057672;28;20305;-69
2021/07/09 08:45:18;;;;;;;10.73;7.30;;;19.30;99.90;;;;;;5064846;28;20246;-68
2021/07/09 08:47:49;;;;;;;10.63;7.10;;;19.30;99.90;;;;;;5061167;28;20597;-69
2021/07/09 08:50:19;;;;;;;12.80;7.17;;;19.10;99.90;;;;;;5061308;28;20207;-69
2021/07/09 08:52:47;;;;;;;10.47;7.30;;;19.20;99.90;;;;;;5060023;28;20193;-69
2021/07/09 08:55:18;;;;;;;10.07;7.20;;;18.90;99.90;;;;;;5062951;28;20643;-69
2021/07/09 08:57:48;;;;;;;10.40;7.27;;;18.90;99.90;;;;;;5057873;28;20227;-69
2021/07/09 09:00:42;;;;;;;9.80;7.17;;;18.90;99.90;;;;;;5060186;28;20858;-69
2021/07/09 09:03:19;;;;;;;10.00;7.40;;;19.10;99.90;;;;;;5079524;28;20210;-69
2021/07/09 09:05:50;;;;;;;9.67;7.37;;;19.20;99.90;;;;;;5078695;28;20257;-69
2021/07/09 09:08:21;;;;;;;8.87;7.10;;;19.30;99.90;;;;;;5063158;28;20201;-67
2021/07/09 09:10:52;;;;;;;11.37;7.13;;;19.20;99.90;;;;;;5062407;28;20192;-69
2021/07/09 09:13:24;;;;;;;12.50;7.80;;;19.30;99.90;;;;;;5056637;28;20177;-70
2021/07/09 09:16:04;;;;;;;9.23;7.43;;;19.40;99.90;;;;;;5058003;28;20196;-69
2021/07/09 09:18:36;;;;;;;9.93;7.87;;;19.40;99.90;;;;;;5064364;28;20275;-68
2021/07/09 09:21:09;;;;;;;10.87;7.57;;;19.60;99.90;;;;;;5059212;28;20188;-69
2021/07/09 09:23:39;;;;;;;10.60;7.70;;;19.60;99.90;;;;;;5061406;28;20239;-69
2021/07/09 09:26:08;;;;;;;9.30;8.13;;;19.80;99.90;;;;;;5060060;28;20728;-70
2021/07/09 09:28:38;;;;;;;10.73;8.10;;;19.80;99.90;;;;;;5060447;28;20204;-69
2021/07/09 09:31:07;;;;;;;12.43;8.70;;;19.70;99.90;;;;;;5076287;28;20194;-69
2021/07/09 09:33:38;;;;;;;11.37;7.97;;;19.80;99.90;;;;;;5060197;28;20235;-69
2021/07/09 09:36:10;;;;;;;12.27;8.50;;;19.70;99.90;;;;;;5061663;28;20200;-68
2021/07/09 09:38:39;;;;;;;12.17;8.80;;;19.70;99.90;;;;;;5061203;28;20447;-69
2021/07/09 09:41:19;;;;;;;14.57;9.00;;;19.70;99.90;;;;;;5063657;28;20188;-69
2021/07/09 09:43:47;;;;;;;12.47;8.80;;;19.50;99.90;;;;;;5061013;28;20215;-69
2021/07/09 09:46:26;;;;;;;10.20;9.20;;;19.30;99.90;;;;;;5065737;28;20196;-68
2021/07/09 09:48:55;;;;;;;14.37;9.93;;;19.40;99.90;;;;;;5062584;28;20215;-69
2021/07/09 09:51:27;;;;;;;17.07;9.73;;;19.40;99.90;;;;;;5064854;28;20224;-69
2021/07/09 09:53:57;;;;;;;16.70;9.30;;;19.70;99.90;;;;;;5067736;28;20231;-68
2021/07/09 09:56:40;;;;;;;15.53;8.60;;;19.80;99.90;;;;;;5065579;28;20187;-69
2021/07/09 09:59:21;;;;;;;13.50;8.10;;;20.10;99.90;;;;;;5058962;28;20245;-69
2021/07/09 10:01:55;;;;;;;8.90;7.67;;;20.10;99.90;;;;;;5064084;28;20721;-69
2021/07/09 10:04:25;;;;;;;14.40;8.03;;;20.10;99.90;;;;;;5060691;28;20270;-69
2021/07/09 10:06:56;;;;;;;11.87;8.33;;;20.20;99.90;;;;;;5067419;28;20200;-69
2021/07/09 10:09:27;;;;;;;10.73;8.17;;;20.30;99.90;;;;;;5062089;28;20387;-68
2021/07/09 10:11:56;;;;;;;13.67;8.57;;;20.30;99.90;;;;;;5065780;28;20192;-69
2021/07/09 10:14:27;;;;;;;9.83;7.80;;;20.40;99.90;;;;;;5070203;28;20189;-69
2021/07/09 10:17:00;;;;;;;10.73;8.03;;;20.20;99.90;;;;;;5067228;28;20200;-69
2021/07/09 10:19:36;;;;;;;9.97;8.47;;;20.30;99.90;;;;;;5068598;28;20195;-69
2021/07/09 10:22:23;;;;;;;8.73;7.83;;;20.30;99.90;;;;;;5063880;28;20219;-68
2021/07/09 10:24:54;;;;;;;9.47;8.03;;;20.20;99.90;;;;;;5071181;28;20709;-69
2021/07/09 10:27:25;;;;;;;13.53;8.47;;;20.40;99.90;;;;;;5064551;28;20200;-68
2021/07/09 10:29:54;;;;;;;11.60;8.23;;;20.50;99.90;;;;;;5065086;28;20238;-69
2021/07/09 10:32:34;;;;;;;9.17;7.83;;;20.50;99.90;;;;;;5064271;28;20224;-69
2021/07/09 10:35:04;;;;;;;10.10;7.63;;;20.50;99.90;;;;;;5065619;28;20245;-68
2021/07/09 10:37:33;;;;;;;14.80;7.77;;;20.50;99.90;;;;;;5061404;28;20250;-69
2021/07/09 10:40:11;;;;;;;8.47;7.33;;;20.40;99.90;;;;;;5067115;28;20192;-69
2021/07/09 10:42:41;;;;;;;9.57;7.53;;;20.50;99.90;;;;;;5066781;28;20199;-69
2021/07/09 10:45:16;;;;;;;10.80;7.83;;;20.40;99.90;;;;;;5047549;28;20215;-69
2021/07/09 10:47:50;;;;;;;8.77;7.80;;;20.60;99.90;;;;;;5066353;28;20230;-68
2021/07/09 10:50:33;;;;;;;12.77;8.47;;;20.60;99.90;;;;;;5065360;28;20280;-69
2021/07/09 10:53:07;;;;;;;13.93;8.37;;;20.40;99.90;;;;;;5067760;28;20190;-69
2021/07/09 10:55:44;;;;;;;12.07;8.40;;;20.50;99.90;;;;;;5083186;28;20645;-69
2021/07/09 10:58:33;;;;;;;11.27;7.40;;;20.50;99.90;;;;;;5069229;28;20196;-69
2021/07/09 11:01:31;;;;;;;9.50;7.60;;;20.60;99.90;;;;;;5064988;28;20729;-70
2021/07/09 11:04:14;;;;;;;9.20;7.47;;;20.70;99.90;;;;;;5066171;28;20208;-69
2021/07/09 11:06:47;;;;;;;8.70;7.20;;;20.90;99.90;;;;;;5067476;28;20277;-69
2021/07/09 11:09:38;;;;;;;9.70;7.60;;;21.10;99.90;;;;;;5062327;28;20405;-68
2021/07/09 11:12:12;;;;;;;9.73;7.17;;;21.70;99.90;;;;;;5066490;28;20287;-69
2021/07/09 11:14:49;;;;;;;9.47;7.37;;;22.10;99.90;;;;;;5062870;28;20238;-69
2021/07/09 11:17:23;;;;;;;8.97;7.10;;;22.40;99.90;;;;;;5065587;28;20523;-69
2021/07/09 11:20:15;;;;;;;8.33;6.90;;;22.40;99.90;;;;;;5059381;28;20680;-69
2021/07/09 11:22:49;;;;;;;11.33;7.50;;;22.10;99.90;;;;;;5064231;28;20216;-69
2021/07/09 11:25:23;;;;;;;8.83;7.07;;;21.70;99.90;;;;;;5062695;28;20197;-69
2021/07/09 11:27:52;;;;;;;8.30;6.83;;;21.60;99.90;;;;;;5062237;28;20207;-68
2021/07/09 11:30:20;;;;;;;8.23;6.63;;;21.60;99.90;;;;;;5064312;28;20242;-68
2021/07/09 11:32:56;;;;;;;10.37;6.70;;;21.60;99.90;;;;;;5065683;28;20251;-69
2021/07/09 11:35:27;;;;;;;7.13;6.43;;;21.50;99.90;;;;;;5064855;28;20197;-69
2021/07/09 11:37:55;;;;;;;7.47;6.40;;;21.50;99.90;;;;;;5060909;28;20205;-69
2021/07/09 11:40:25;;;;;;;10.33;6.90;;;21.50;99.90;;;;;;5063310;28;20231;-68
2021/07/09 11:42:53;;;;;;;12.50;6.70;;;21.70;99.90;;;;;;5062780;28;20236;-69
2021/07/09 11:45:29;;;;;;;10.03;6.63;;;21.90;99.90;;;;;;5063930;28;20289;-68
2021/07/09 11:48:02;;;;;;;9.10;6.80;;;21.80;99.90;;;;;;5062853;28;20280;-69
2021/07/09 11:50:35;;;;;;;8.40;6.50;;;22.00;99.90;;;;;;5063632;28;20204;-69
2021/07/09 11:53:07;;;;;;;8.80;6.97;;;22.20;99.90;;;;;;5061815;28;20205;-69
2021/07/09 11:55:36;;;;;;;8.13;6.70;;;22.50;99.90;;;;;;5070073;28;20253;-69
2021/07/09 11:58:08;;;;;;;8.50;6.40;;;22.40;99.90;;;;;;5069992;28;20665;-69
2021/07/09 12:00:37;;;;;;;8.53;6.70;;;22.10;99.90;;;;;;5066941;28;20220;-69
2021/07/09 12:03:05;;;;;;;7.63;6.50;;;22.10;99.90;;;;;;5069400;28;20238;-69
2021/07/09 12:05:36;;;;;;;9.10;6.57;;;22.10;99.90;;;;;;5066421;28;20299;-69
2021/07/09 12:08:10;;;;;;;8.67;6.60;;;22.10;99.90;;;;;;5069842;28;20205;-69
2021/07/09 12:10:42;;;;;;;8.60;6.60;;;22.20;99.90;;;;;;5065308;28;20203;-69
2021/07/09 12:13:11;;;;;;;10.03;6.47;;;22.30;99.90;;;;;;5069551;28;20253;-68
2021/07/09 12:15:40;;;;;;;6.73;6.07;;;22.40;99.90;;;;;;5067110;28;20196;-69
2021/07/09 12:18:10;;;;;;;8.30;6.10;;;22.50;99.90;;;;;;5069198;28;20606;-69
2021/07/09 12:20:40;;;;;;;6.63;5.80;;;22.60;99.90;;;;;;5066686;28;20192;-69
2021/07/09 12:23:10;;;;;;;8.37;5.90;;;22.90;99.90;;;;;;5064364;28;20215;-69
2021/07/09 12:25:41;;;;;;;8.27;6.07;;;22.90;99.90;;;;;;5066499;28;20237;-69
2021/07/09 12:28:11;;;;;;;7.03;5.70;;;22.90;99.90;;;;;;5066634;28;20283;-69
2021/07/09 12:30:44;;;;;;;9.97;6.13;;;22.90;99.90;;;;;;5068531;28;20189;-69
2021/07/09 12:33:14;;;;;;;6.33;5.50;;;23.20;99.90;;;;;;5064519;28;20236;-69
2021/07/09 12:35:58;;;;;;;8.53;6.00;;;23.20;99.90;;;;;;5047393;28;20603;-68
2021/07/09 12:38:27;;;;;;;6.37;5.67;;;23.40;99.90;;;;;;5067904;28;20193;-68
2021/07/09 12:41:03;;;;;;;6.03;5.40;;;23.50;99.90;;;;;;5072662;28;20698;-69
2021/07/09 12:43:46;;;;;;;6.77;5.90;;;23.70;99.90;;;;;;5068796;28;20258;-69
2021/07/09 12:46:18;;;;;;;6.63;5.27;;;23.70;99.90;;;;;;5060975;28;21311;-69
2021/07/09 12:48:54;;;;;;;8.87;5.43;;;23.60;99.90;;;;;;5062318;28;20844;-68
2021/07/09 12:51:25;;;;;;;6.83;5.67;;;23.50;99.90;;;;;;5060953;28;20241;-69